sensor_id;sensor_type;location;lat;lon;timestamp;temperature;humidity
29413;DHT22;16389;50.126;8.450;2023-12-20T00:00:37;5.00;99.90
29413;DHT22;16389;50.126;8.450;2023-12-20T00:03:03;5.10;99.90
29413;DHT22;16389;50.126;8.450;2023-12-20T00:05:29;5.10;99.90
29413;DHT22;16389;50.126;8.450;2023-12-20T00:07:57;5.10;99.90
29413;DHT22;16389;50.126;8.450;2023-12-20T00:10:23;5.10;99.90
29413;DHT22;16389;50.126;8.450;2023-12-20T00:12:51;5.10;99.90
29413;DHT22;16389;50.126;8.450;2023-12-20T00:15:17;5.10;99.90
29413;DHT22;16389;50.126;8.450;2023-12-20T00:17:43;5.10;99.90
29413;DHT22;16389;50.126;8.450;2023-12-20T00:20:09;5.10;99.90
29413;DHT22;16389;50.126;8.450;2023-12-20T00:22:37;5.10;99.90
29413;DHT22;16389;50.126;8.450;2023-12-20T00:25:03;5.10;99.90
29413;DHT22;16389;50.126;8.450;2023-12-20T00:27:29;5.10;99.90
29413;DHT22;16389;50.126;8.450;2023-12-20T00:29:55;5.10;99.90
29413;DHT22;16389;50.126;8.450;2023-12-20T00:32:21;5.10;99.90
29413;DHT22;16389;50.126;8.450;2023-12-20T00:34:50;5.10;99.90
29413;DHT22;16389;50.126;8.450;2023-12-20T00:37:15;5.10;99.90
29413;DHT22;16389;50.126;8.450;2023-12-20T00:39:41;5.10;99.90
29413;DHT22;16389;50.126;8.450;2023-12-20T00:42:07;5.20;99.90
29413;DHT22;16389;50.126;8.450;2023-12-20T00:44:33;5.10;99.90
29413;DHT22;16389;50.126;8.450;2023-12-20T00:46:59;5.10;99.90
29413;DHT22;16389;50.126;8.450;2023-12-20T00:49:24;5.10;99.90
29413;DHT22;16389;50.126;8.450;2023-12-20T00:51:50;5.10;99.90
29413;DHT22;16389;50.126;8.450;2023-12-20T00:54:25;5.10;99.90
29413;DHT22;16389;50.126;8.450;2023-12-20T00:56:51;5.10;99.90
29413;DHT22;16389;50.126;8.450;2023-12-20T00:59:17;5.10;99.90
29413;DHT22;16389;50.126;8.450;2023-12-20T01:01:43;5.10;99.90
29413;DHT22;16389;50.126;8.450;2023-12-20T01:04:12;5.10;99.90
29413;DHT22;16389;50.126;8.450;2023-12-20T01:06:37;5.10;99.90
29413;DHT22;16389;50.126;8.450;2023-12-20T01:09:03;5.10;99.90
29413;DHT22;16389;50.126;8.450;2023-12-20T01:11:28;5.10;99.90
29413;DHT22;16389;50.126;8.450;2023-12-20T01:13:54;5.10;99.90
29413;DHT22;16389;50.126;8.450;2023-12-20T01:16:20;5.10;99.90
29413;DHT22;16389;50.126;8.450;2023-12-20T01:18:49;5.10;99.90
29413;DHT22;16389;50.126;8.450;2023-12-20T01:21:14;5.00;99.90
29413;DHT22;16389;50.126;8.450;2023-12-20T01:23:40;5.10;99.90
29413;DHT22;16389;50.126;8.450;2023-12-20T01:26:06;5.00;99.90
29413;DHT22;16389;50.126;8.450;2023-12-20T01:28:32;5.00;99.90
29413;DHT22;16389;50.126;8.450;2023-12-20T01:30:58;5.00;99.90
29413;DHT22;16389;50.126;8.450;2023-12-20T01:33:24;5.10;99.90
29413;DHT22;16389;50.126;8.450;2023-12-20T01:35:49;5.00;99.90
29413;DHT22;16389;50.126;8.450;2023-12-20T01:38:18;5.00;99.90
29413;DHT22;16389;50.126;8.450;2023-12-20T01:40:44;5.00;99.90
29413;DHT22;16389;50.126;8.450;2023-12-20T01:43:10;4.90;99.90
29413;DHT22;16389;50.126;8.450;2023-12-20T01:45:37;5.00;99.90
29413;DHT22;16389;50.126;8.450;2023-12-20T01:48:05;5.00;99.90
29413;DHT22;16389;50.126;8.450;2023-12-20T01:50:31;5.00;99.90
29413;DHT22;16389;50.126;8.450;2023-12-20T01:52:59;5.10;99.90
29413;DHT22;16389;50.126;8.450;2023-12-20T01:55:27;5.10;99.90
29413;DHT22;16389;50.126;8.450;2023-12-20T01:57:55;5.00;99.90
29413;DHT22;16389;50.126;8.450;2023-12-20T02:00:23;5.10;99.90
29413;DHT22;16389;50.126;8.450;2023-12-20T02:02:56;5.10;99.90
29413;DHT22;16389;50.126;8.450;2023-12-20T02:05:25;5.10;99.90
29413;DHT22;16389;50.126;8.450;2023-12-20T02:07:51;5.00;99.90
29413;DHT22;16389;50.126;8.450;2023-12-20T02:10:16;5.00;99.90
29413;DHT22;16389;50.126;8.450;2023-12-20T02:12:42;5.00;99.90
29413;DHT22;16389;50.126;8.450;2023-12-20T02:15:08;5.00;99.90
29413;DHT22;16389;50.126;8.450;2023-12-20T02:17:34;5.00;99.90
29413;DHT22;16389;50.126;8.450;2023-12-20T02:20:02;5.00;99.90
29413;DHT22;16389;50.126;8.450;2023-12-20T02:22:28;5.00;99.90
29413;DHT22;16389;50.126;8.450;2023-12-20T02:24:54;5.00;99.90
29413;DHT22;16389;50.126;8.450;2023-12-20T02:27:19;4.90;99.90
29413;DHT22;16389;50.126;8.450;2023-12-20T02:29:47;5.00;99.90
29413;DHT22;16389;50.126;8.450;2023-12-20T02:32:12;5.00;99.90
29413;DHT22;16389;50.126;8.450;2023-12-20T02:34:45;5.00;99.90
29413;DHT22;16389;50.126;8.450;2023-12-20T02:37:15;5.00;99.90
29413;DHT22;16389;50.126;8.450;2023-12-20T02:39:40;5.00;99.90
29413;DHT22;16389;50.126;8.450;2023-12-20T02:42:13;5.00;99.90
29413;DHT22;16389;50.126;8.450;2023-12-20T02:44:41;5.00;99.90
29413;DHT22;16389;50.126;8.450;2023-12-20T02:47:13;5.10;99.90
29413;DHT22;16389;50.126;8.450;2023-12-20T02:50:12;5.10;99.90
29413;DHT22;16389;50.126;8.450;2023-12-20T02:52:40;5.10;99.90
29413;DHT22;16389;50.126;8.450;2023-12-20T02:55:06;5.10;99.90
29413;DHT22;16389;50.126;8.450;2023-12-20T02:57:31;5.10;99.90
29413;DHT22;16389;50.126;8.450;2023-12-20T02:59:58;5.20;99.90
29413;DHT22;16389;50.126;8.450;2023-12-20T03:02:24;5.20;99.90
29413;DHT22;16389;50.126;8.450;2023-12-20T03:04:50;5.10;99.90
29413;DHT22;16389;50.126;8.450;2023-12-20T03:07:15;5.20;99.90
29413;DHT22;16389;50.126;8.450;2023-12-20T03:09:41;5.10;99.90
29413;DHT22;16389;50.126;8.450;2023-12-20T03:12:06;5.10;99.90
29413;DHT22;16389;50.126;8.450;2023-12-20T03:14:32;5.10;99.90
29413;DHT22;16389;50.126;8.450;2023-12-20T03:16:57;5.20;99.90
29413;DHT22;16389;50.126;8.450;2023-12-20T03:19:23;5.20;99.90
29413;DHT22;16389;50.126;8.450;2023-12-20T03:21:49;5.20;99.90
29413;DHT22;16389;50.126;8.450;2023-12-20T03:24:15;5.20;99.90
29413;DHT22;16389;50.126;8.450;2023-12-20T03:26:41;5.20;99.90
29413;DHT22;16389;50.126;8.450;2023-12-20T03:29:06;5.20;99.90
29413;DHT22;16389;50.126;8.450;2023-12-20T03:31:32;5.10;99.90
29413;DHT22;16389;50.126;8.450;2023-12-20T03:33:58;5.20;99.90
29413;DHT22;16389;50.126;8.450;2023-12-20T03:36:23;5.20;99.90
29413;DHT22;16389;50.126;8.450;2023-12-20T03:38:49;5.20;99.90
29413;DHT22;16389;50.126;8.450;2023-12-20T03:41:14;5.20;99.90
29413;DHT22;16389;50.126;8.450;2023-12-20T03:43:43;5.20;99.90
29413;DHT22;16389;50.126;8.450;2023-12-20T03:46:09;5.30;99.90
29413;DHT22;16389;50.126;8.450;2023-12-20T03:48:35;5.20;99.90
29413;DHT22;16389;50.126;8.450;2023-12-20T03:51:00;5.20;99.90
29413;DHT22;16389;50.126;8.450;2023-12-20T03:53:26;5.30;99.90
29413;DHT22;16389;50.126;8.450;2023-12-20T03:55:52;5.30;99.90
29413;DHT22;16389;50.126;8.450;2023-12-20T03:58:17;5.30;99.90
29413;DHT22;16389;50.126;8.450;2023-12-20T04:00:43;5.30;99.90
29413;DHT22;16389;50.126;8.450;2023-12-20T04:03:09;5.40;99.90
29413;DHT22;16389;50.126;8.450;2023-12-20T04:05:34;5.40;99.90
29413;DHT22;16389;50.126;8.450;2023-12-20T04:08:01;5.40;99.90
29413;DHT22;16389;50.126;8.450;2023-12-20T04:10:42;5.50;99.90
29413;DHT22;16389;50.126;8.450;2023-12-20T04:13:12;5.50;99.90
29413;DHT22;16389;50.126;8.450;2023-12-20T04:15:41;5.60;99.90
29413;DHT22;16389;50.126;8.450;2023-12-20T04:18:10;5.60;99.90
29413;DHT22;16389;50.126;8.450;2023-12-20T04:20:39;5.60;99.90
29413;DHT22;16389;50.126;8.450;2023-12-20T04:23:08;5.60;99.90
29413;DHT22;16389;50.126;8.450;2023-12-20T04:25:39;5.60;99.90
29413;DHT22;16389;50.126;8.450;2023-12-20T04:28:25;5.60;99.90
29413;DHT22;16389;50.126;8.450;2023-12-20T04:30:57;5.60;99.90
29413;DHT22;16389;50.126;8.450;2023-12-20T04:33:26;5.50;99.90
29413;DHT22;16389;50.126;8.450;2023-12-20T04:39:23;5.40;99.90
29413;DHT22;16389;50.126;8.450;2023-12-20T04:41:55;5.20;99.90
29413;DHT22;16389;50.126;8.450;2023-12-20T04:44:21;5.20;99.90
29413;DHT22;16389;50.126;8.450;2023-12-20T04:46:56;5.10;99.90
29413;DHT22;16389;50.126;8.450;2023-12-20T04:49:23;4.90;99.90
29413;DHT22;16389;50.126;8.450;2023-12-20T04:51:51;4.90;99.90
29413;DHT22;16389;50.126;8.450;2023-12-20T04:54:20;5.00;99.90
29413;DHT22;16389;50.126;8.450;2023-12-20T04:56:46;5.00;99.90
29413;DHT22;16389;50.126;8.450;2023-12-20T04:59:13;5.00;99.90
29413;DHT22;16389;50.126;8.450;2023-12-20T05:01:48;5.10;99.90
29413;DHT22;16389;50.126;8.450;2023-12-20T05:04:14;5.10;99.90
29413;DHT22;16389;50.126;8.450;2023-12-20T05:06:39;5.20;99.90
29413;DHT22;16389;50.126;8.450;2023-12-20T05:09:05;5.10;99.90
29413;DHT22;16389;50.126;8.450;2023-12-20T05:11:30;5.10;99.90
29413;DHT22;16389;50.126;8.450;2023-12-20T05:13:56;4.90;99.90
29413;DHT22;16389;50.126;8.450;2023-12-20T05:16:22;4.80;99.90
29413;DHT22;16389;50.126;8.450;2023-12-20T05:18:48;4.80;99.90
29413;DHT22;16389;50.126;8.450;2023-12-20T05:21:15;4.70;99.90
29413;DHT22;16389;50.126;8.450;2023-12-20T05:23:41;4.60;99.90
29413;DHT22;16389;50.126;8.450;2023-12-20T05:26:06;4.50;99.90
29413;DHT22;16389;50.126;8.450;2023-12-20T05:28:32;4.50;99.90
29413;DHT22;16389;50.126;8.450;2023-12-20T05:31:00;4.50;99.90
29413;DHT22;16389;50.126;8.450;2023-12-20T05:33:26;4.60;99.90
29413;DHT22;16389;50.126;8.450;2023-12-20T05:35:52;4.60;99.90
29413;DHT22;16389;50.126;8.450;2023-12-20T05:38:17;4.50;99.90
29413;DHT22;16389;50.126;8.450;2023-12-20T05:40:43;4.50;99.90
29413;DHT22;16389;50.126;8.450;2023-12-20T05:43:09;4.50;99.90
29413;DHT22;16389;50.126;8.450;2023-12-20T05:45:34;4.40;99.90
29413;DHT22;16389;50.126;8.450;2023-12-20T05:48:00;4.30;99.90
29413;DHT22;16389;50.126;8.450;2023-12-20T05:50:28;4.30;99.90
29413;DHT22;16389;50.126;8.450;2023-12-20T05:52:54;4.30;99.90
29413;DHT22;16389;50.126;8.450;2023-12-20T05:55:20;4.30;99.90
29413;DHT22;16389;50.126;8.450;2023-12-20T05:57:49;4.40;99.90
29413;DHT22;16389;50.126;8.450;2023-12-20T06:00:18;4.30;99.90
29413;DHT22;16389;50.126;8.450;2023-12-20T06:02:43;4.30;99.90
29413;DHT22;16389;50.126;8.450;2023-12-20T06:05:11;4.30;99.90
29413;DHT22;16389;50.126;8.450;2023-12-20T06:07:37;4.20;99.90
29413;DHT22;16389;50.126;8.450;2023-12-20T06:10:03;4.20;99.90
29413;DHT22;16389;50.126;8.450;2023-12-20T06:12:29;4.00;99.90
29413;DHT22;16389;50.126;8.450;2023-12-20T06:14:57;4.00;99.90
29413;DHT22;16389;50.126;8.450;2023-12-20T06:17:23;4.10;99.90
29413;DHT22;16389;50.126;8.450;2023-12-20T06:19:48;4.10;99.90
29413;DHT22;16389;50.126;8.450;2023-12-20T06:22:15;4.10;99.90
29413;DHT22;16389;50.126;8.450;2023-12-20T06:24:41;4.10;99.90
29413;DHT22;16389;50.126;8.450;2023-12-20T06:27:10;4.00;99.90
29413;DHT22;16389;50.126;8.450;2023-12-20T06:29:38;3.90;99.90
29413;DHT22;16389;50.126;8.450;2023-12-20T06:32:04;3.90;99.90
29413;DHT22;16389;50.126;8.450;2023-12-20T06:34:30;3.80;99.90
29413;DHT22;16389;50.126;8.450;2023-12-20T06:36:55;3.80;99.90
29413;DHT22;16389;50.126;8.450;2023-12-20T06:39:21;3.60;99.90
29413;DHT22;16389;50.126;8.450;2023-12-20T06:41:47;3.70;99.90
29413;DHT22;16389;50.126;8.450;2023-12-20T06:44:12;3.70;99.90
29413;DHT22;16389;50.126;8.450;2023-12-20T06:46:38;3.50;99.90
29413;DHT22;16389;50.126;8.450;2023-12-20T06:49:03;3.40;99.90
29413;DHT22;16389;50.126;8.450;2023-12-20T06:51:30;3.40;99.90
29413;DHT22;16389;50.126;8.450;2023-12-20T06:53:56;3.40;99.90
29413;DHT22;16389;50.126;8.450;2023-12-20T06:56:21;3.30;99.90
29413;DHT22;16389;50.126;8.450;2023-12-20T06:58:47;3.30;99.90
29413;DHT22;16389;50.126;8.450;2023-12-20T07:01:16;3.20;99.90
29413;DHT22;16389;50.126;8.450;2023-12-20T07:03:42;3.40;99.90
29413;DHT22;16389;50.126;8.450;2023-12-20T07:06:08;3.50;99.90
29413;DHT22;16389;50.126;8.450;2023-12-20T07:08:34;3.60;99.90
29413;DHT22;16389;50.126;8.450;2023-12-20T07:11:00;3.70;99.90
29413;DHT22;16389;50.126;8.450;2023-12-20T07:13:25;3.70;99.90
29413;DHT22;16389;50.126;8.450;2023-12-20T07:15:51;3.80;99.90
29413;DHT22;16389;50.126;8.450;2023-12-20T07:18:16;3.80;99.90
29413;DHT22;16389;50.126;8.450;2023-12-20T07:20:42;3.70;99.90
29413;DHT22;16389;50.126;8.450;2023-12-20T07:23:11;3.70;99.90
29413;DHT22;16389;50.126;8.450;2023-12-20T07:25:36;3.60;99.90
29413;DHT22;16389;50.126;8.450;2023-12-20T07:28:02;3.50;99.90
29413;DHT22;16389;50.126;8.450;2023-12-20T07:30:28;3.40;99.90
29413;DHT22;16389;50.126;8.450;2023-12-20T07:32:53;3.50;99.90
29413;DHT22;16389;50.126;8.450;2023-12-20T07:35:19;3.50;99.90
29413;DHT22;16389;50.126;8.450;2023-12-20T07:37:45;3.50;99.90
29413;DHT22;16389;50.126;8.450;2023-12-20T07:40:13;3.60;99.90
29413;DHT22;16389;50.126;8.450;2023-12-20T07:42:39;3.70;99.90
29413;DHT22;16389;50.126;8.450;2023-12-20T07:45:04;3.80;99.90
29413;DHT22;16389;50.126;8.450;2023-12-20T07:47:30;3.90;99.90
29413;DHT22;16389;50.126;8.450;2023-12-20T07:49:56;4.00;99.90
29413;DHT22;16389;50.126;8.450;2023-12-20T07:52:21;4.10;99.90
29413;DHT22;16389;50.126;8.450;2023-12-20T07:54:50;4.20;99.90
29413;DHT22;16389;50.126;8.450;2023-12-20T07:57:16;4.20;99.90
29413;DHT22;16389;50.126;8.450;2023-12-20T07:59:42;4.20;99.90
29413;DHT22;16389;50.126;8.450;2023-12-20T08:02:09;4.30;99.90
29413;DHT22;16389;50.126;8.450;2023-12-20T08:04:44;4.40;99.90
29413;DHT22;16389;50.126;8.450;2023-12-20T08:07:10;4.40;99.90
29413;DHT22;16389;50.126;8.450;2023-12-20T08:09:35;4.40;99.90
29413;DHT22;16389;50.126;8.450;2023-12-20T08:12:02;4.50;99.90
29413;DHT22;16389;50.126;8.450;2023-12-20T08:14:28;4.50;99.90
29413;DHT22;16389;50.126;8.450;2023-12-20T08:16:53;4.60;99.90
29413;DHT22;16389;50.126;8.450;2023-12-20T08:19:19;4.60;99.90
29413;DHT22;16389;50.126;8.450;2023-12-20T08:21:45;4.70;99.90
29413;DHT22;16389;50.126;8.450;2023-12-20T08:24:14;4.70;99.90
29413;DHT22;16389;50.126;8.450;2023-12-20T08:26:39;4.60;99.90
29413;DHT22;16389;50.126;8.450;2023-12-20T08:29:05;4.60;99.90
29413;DHT22;16389;50.126;8.450;2023-12-20T08:31:33;4.60;99.90
29413;DHT22;16389;50.126;8.450;2023-12-20T08:34:14;4.70;99.90
29413;DHT22;16389;50.126;8.450;2023-12-20T08:36:40;4.80;99.90
29413;DHT22;16389;50.126;8.450;2023-12-20T08:39:06;4.90;99.90
29413;DHT22;16389;50.126;8.450;2023-12-20T08:41:35;5.10;99.90
29413;DHT22;16389;50.126;8.450;2023-12-20T08:44:02;5.10;99.90
29413;DHT22;16389;50.126;8.450;2023-12-20T08:46:40;5.20;99.90
29413;DHT22;16389;50.126;8.450;2023-12-20T08:49:32;5.20;99.90
29413;DHT22;16389;50.126;8.450;2023-12-20T08:51:58;5.20;99.90
29413;DHT22;16389;50.126;8.450;2023-12-20T08:54:23;5.30;99.90
29413;DHT22;16389;50.126;8.450;2023-12-20T08:56:49;5.30;99.90
29413;DHT22;16389;50.126;8.450;2023-12-20T08:59:15;5.30;99.90
29413;DHT22;16389;50.126;8.450;2023-12-20T09:01:44;5.40;99.90
29413;DHT22;16389;50.126;8.450;2023-12-20T09:04:10;5.50;99.90
29413;DHT22;16389;50.126;8.450;2023-12-20T09:06:35;5.60;99.90
29413;DHT22;16389;50.126;8.450;2023-12-20T09:09:01;5.60;99.90
29413;DHT22;16389;50.126;8.450;2023-12-20T09:11:27;5.70;99.90
29413;DHT22;16389;50.126;8.450;2023-12-20T09:14:05;5.80;99.90
29413;DHT22;16389;50.126;8.450;2023-12-20T09:17:02;5.90;99.90
29413;DHT22;16389;50.126;8.450;2023-12-20T09:19:28;5.80;99.90
29413;DHT22;16389;50.126;8.450;2023-12-20T09:21:55;5.80;99.90
29413;DHT22;16389;50.126;8.450;2023-12-20T09:24:20;5.90;99.90
29413;DHT22;16389;50.126;8.450;2023-12-20T09:26:46;5.80;99.90
29413;DHT22;16389;50.126;8.450;2023-12-20T09:29:11;5.90;99.90
29413;DHT22;16389;50.126;8.450;2023-12-20T09:31:41;5.90;99.90
29413;DHT22;16389;50.126;8.450;2023-12-20T09:34:09;5.90;99.90
29413;DHT22;16389;50.126;8.450;2023-12-20T09:36:38;5.90;99.90
29413;DHT22;16389;50.126;8.450;2023-12-20T09:39:07;6.00;99.90
29413;DHT22;16389;50.126;8.450;2023-12-20T09:41:37;6.10;99.90
29413;DHT22;16389;50.126;8.450;2023-12-20T09:44:07;6.20;99.90
29413;DHT22;16389;50.126;8.450;2023-12-20T09:46:44;6.30;99.90
29413;DHT22;16389;50.126;8.450;2023-12-20T09:49:11;6.30;99.90
29413;DHT22;16389;50.126;8.450;2023-12-20T09:51:38;6.30;99.90
29413;DHT22;16389;50.126;8.450;2023-12-20T09:54:05;6.30;99.90
29413;DHT22;16389;50.126;8.450;2023-12-20T09:56:31;6.40;99.90
29413;DHT22;16389;50.126;8.450;2023-12-20T09:58:56;6.40;99.90
29413;DHT22;16389;50.126;8.450;2023-12-20T10:01:23;6.40;99.90
29413;DHT22;16389;50.126;8.450;2023-12-20T10:03:50;6.30;99.90
29413;DHT22;16389;50.126;8.450;2023-12-20T10:06:17;6.30;99.90
29413;DHT22;16389;50.126;8.450;2023-12-20T10:08:42;6.10;99.90
29413;DHT22;16389;50.126;8.450;2023-12-20T10:11:09;6.10;99.90
29413;DHT22;16389;50.126;8.450;2023-12-20T10:13:48;6.00;99.90
29413;DHT22;16389;50.126;8.450;2023-12-20T10:16:14;6.20;99.90
29413;DHT22;16389;50.126;8.450;2023-12-20T10:18:39;6.30;99.90
29413;DHT22;16389;50.126;8.450;2023-12-20T10:21:06;6.70;99.90
29413;DHT22;16389;50.126;8.450;2023-12-20T10:23:35;6.90;99.90
29413;DHT22;16389;50.126;8.450;2023-12-20T10:26:02;6.90;99.90
29413;DHT22;16389;50.126;8.450;2023-12-20T10:28:33;6.80;99.90
29413;DHT22;16389;50.126;8.450;2023-12-20T10:30:59;6.70;99.90
29413;DHT22;16389;50.126;8.450;2023-12-20T10:33:31;6.60;99.90
29413;DHT22;16389;50.126;8.450;2023-12-20T10:36:00;6.40;99.90
29413;DHT22;16389;50.126;8.450;2023-12-20T10:38:26;6.40;99.90
29413;DHT22;16389;50.126;8.450;2023-12-20T10:40:57;6.40;99.90
29413;DHT22;16389;50.126;8.450;2023-12-20T10:43:28;6.30;99.90
29413;DHT22;16389;50.126;8.450;2023-12-20T10:45:54;6.30;99.90
29413;DHT22;16389;50.126;8.450;2023-12-20T10:48:20;6.30;99.90
29413;DHT22;16389;50.126;8.450;2023-12-20T10:50:53;6.30;99.90
29413;DHT22;16389;50.126;8.450;2023-12-20T10:53:20;6.30;99.90
29413;DHT22;16389;50.126;8.450;2023-12-20T10:55:51;6.30;99.90
29413;DHT22;16389;50.126;8.450;2023-12-20T10:58:20;6.40;99.90
29413;DHT22;16389;50.126;8.450;2023-12-20T11:00:52;6.40;99.90
29413;DHT22;16389;50.126;8.450;2023-12-20T11:03:33;6.40;99.90
29413;DHT22;16389;50.126;8.450;2023-12-20T11:06:16;6.40;99.90
29413;DHT22;16389;50.126;8.450;2023-12-20T11:14:22;6.60;99.90
29413;DHT22;16389;50.126;8.450;2023-12-20T11:17:06;6.50;99.90
29413;DHT22;16389;50.126;8.450;2023-12-20T11:19:31;6.60;99.90
29413;DHT22;16389;50.126;8.450;2023-12-20T11:21:57;6.60;99.90
29413;DHT22;16389;50.126;8.450;2023-12-20T11:24:22;6.70;99.90
29413;DHT22;16389;50.126;8.450;2023-12-20T11:29:37;6.90;99.90
29413;DHT22;16389;50.126;8.450;2023-12-20T11:40:23;7.30;99.90
29413;DHT22;16389;50.126;8.450;2023-12-20T11:42:51;7.30;99.90
29413;DHT22;16389;50.126;8.450;2023-12-20T11:45:19;7.30;99.90
29413;DHT22;16389;50.126;8.450;2023-12-20T11:47:56;7.50;99.90
29413;DHT22;16389;50.126;8.450;2023-12-20T11:50:23;7.60;99.90
29413;DHT22;16389;50.126;8.450;2023-12-20T11:52:49;7.70;99.90
29413;DHT22;16389;50.126;8.450;2023-12-20T11:55:15;7.90;99.90
29413;DHT22;16389;50.126;8.450;2023-12-20T11:57:42;8.00;99.90
29413;DHT22;16389;50.126;8.450;2023-12-20T12:00:08;8.10;99.90
29413;DHT22;16389;50.126;8.450;2023-12-20T12:02:37;8.20;99.90
29413;DHT22;16389;50.126;8.450;2023-12-20T12:05:03;8.10;99.90
29413;DHT22;16389;50.126;8.450;2023-12-20T12:07:31;7.90;99.90
29413;DHT22;16389;50.126;8.450;2023-12-20T12:10:36;7.80;99.90
29413;DHT22;16389;50.126;8.450;2023-12-20T12:13:01;7.50;99.90
29413;DHT22;16389;50.126;8.450;2023-12-20T12:15:27;7.40;99.90
29413;DHT22;16389;50.126;8.450;2023-12-20T12:17:57;7.30;99.90
29413;DHT22;16389;50.126;8.450;2023-12-20T12:20:33;7.20;99.90
29413;DHT22;16389;50.126;8.450;2023-12-20T12:23:12;7.20;99.90
29413;DHT22;16389;50.126;8.450;2023-12-20T12:25:38;7.30;99.90
29413;DHT22;16389;50.126;8.450;2023-12-20T12:28:04;7.40;99.90
29413;DHT22;16389;50.126;8.450;2023-12-20T12:30:30;7.40;99.90
29413;DHT22;16389;50.126;8.450;2023-12-20T12:32:56;7.30;99.90
29413;DHT22;16389;50.126;8.450;2023-12-20T12:35:23;7.20;99.90
29413;DHT22;16389;50.126;8.450;2023-12-20T12:37:52;7.10;99.90
29413;DHT22;16389;50.126;8.450;2023-12-20T12:40:17;7.10;99.90
29413;DHT22;16389;50.126;8.450;2023-12-20T12:42:44;7.00;99.90
29413;DHT22;16389;50.126;8.450;2023-12-20T12:45:11;7.00;99.90
29413;DHT22;16389;50.126;8.450;2023-12-20T12:47:39;6.90;99.90
29413;DHT22;16389;50.126;8.450;2023-12-20T12:50:05;7.00;99.90
29413;DHT22;16389;50.126;8.450;2023-12-20T12:52:31;7.00;99.90
29413;DHT22;16389;50.126;8.450;2023-12-20T12:54:57;7.10;99.90
29413;DHT22;16389;50.126;8.450;2023-12-20T12:57:23;7.20;99.90
29413;DHT22;16389;50.126;8.450;2023-12-20T12:59:49;7.40;99.90
29413;DHT22;16389;50.126;8.450;2023-12-20T13:02:16;7.60;99.90
29413;DHT22;16389;50.126;8.450;2023-12-20T13:04:44;7.80;99.90
29413;DHT22;16389;50.126;8.450;2023-12-20T13:07:11;7.70;99.90
29413;DHT22;16389;50.126;8.450;2023-12-20T13:09:38;7.70;99.90
29413;DHT22;16389;50.126;8.450;2023-12-20T13:12:05;7.80;99.90
29413;DHT22;16389;50.126;8.450;2023-12-20T13:14:33;7.90;99.90
29413;DHT22;16389;50.126;8.450;2023-12-20T13:17:00;8.10;99.90
29413;DHT22;16389;50.126;8.450;2023-12-20T13:19:26;8.30;99.90
29413;DHT22;16389;50.126;8.450;2023-12-20T13:21:52;8.40;99.90
29413;DHT22;16389;50.126;8.450;2023-12-20T13:24:21;8.40;99.90
29413;DHT22;16389;50.126;8.450;2023-12-20T13:26:47;8.40;99.90
29413;DHT22;16389;50.126;8.450;2023-12-20T13:29:12;8.20;99.90
29413;DHT22;16389;50.126;8.450;2023-12-20T13:31:38;8.00;99.90
29413;DHT22;16389;50.126;8.450;2023-12-20T13:34:06;7.90;99.90
29413;DHT22;16389;50.126;8.450;2023-12-20T13:36:31;7.80;99.90
29413;DHT22;16389;50.126;8.450;2023-12-20T13:38:57;7.90;99.90
29413;DHT22;16389;50.126;8.450;2023-12-20T13:41:22;7.90;99.90
29413;DHT22;16389;50.126;8.450;2023-12-20T13:43:48;8.00;99.90
29413;DHT22;16389;50.126;8.450;2023-12-20T13:46:14;8.10;99.90
29413;DHT22;16389;50.126;8.450;2023-12-20T13:48:40;8.20;99.90
29413;DHT22;16389;50.126;8.450;2023-12-20T13:51:05;8.30;99.90
29413;DHT22;16389;50.126;8.450;2023-12-20T13:53:31;8.20;99.90
29413;DHT22;16389;50.126;8.450;2023-12-20T13:55:59;8.10;99.90
29413;DHT22;16389;50.126;8.450;2023-12-20T13:58:26;8.00;99.90
29413;DHT22;16389;50.126;8.450;2023-12-20T14:00:51;8.00;99.90
29413;DHT22;16389;50.126;8.450;2023-12-20T14:03:17;7.90;99.90
29413;DHT22;16389;50.126;8.450;2023-12-20T14:06:00;7.80;99.90
29413;DHT22;16389;50.126;8.450;2023-12-20T14:08:27;7.70;99.90
29413;DHT22;16389;50.126;8.450;2023-12-20T14:10:56;7.70;99.90
29413;DHT22;16389;50.126;8.450;2023-12-20T14:13:24;7.70;99.90
29413;DHT22;16389;50.126;8.450;2023-12-20T14:15:59;7.60;99.90
29413;DHT22;16389;50.126;8.450;2023-12-20T14:18:26;7.50;99.90
29413;DHT22;16389;50.126;8.450;2023-12-20T14:20:51;7.50;99.90
29413;DHT22;16389;50.126;8.450;2023-12-20T14:23:19;7.40;99.90
29413;DHT22;16389;50.126;8.450;2023-12-20T14:25:45;7.40;99.90
29413;DHT22;16389;50.126;8.450;2023-12-20T14:28:23;7.40;99.90
29413;DHT22;16389;50.126;8.450;2023-12-20T14:31:05;7.40;99.90
29413;DHT22;16389;50.126;8.450;2023-12-20T14:33:34;7.40;99.90
29413;DHT22;16389;50.126;8.450;2023-12-20T14:36:00;7.40;99.90
29413;DHT22;16389;50.126;8.450;2023-12-20T14:38:28;7.30;99.90
29413;DHT22;16389;50.126;8.450;2023-12-20T14:40:54;7.30;99.90
29413;DHT22;16389;50.126;8.450;2023-12-20T14:43:19;7.40;99.90
29413;DHT22;16389;50.126;8.450;2023-12-20T14:45:47;7.30;99.90
29413;DHT22;16389;50.126;8.450;2023-12-20T14:48:13;7.30;99.90
29413;DHT22;16389;50.126;8.450;2023-12-20T14:50:38;7.30;99.90
29413;DHT22;16389;50.126;8.450;2023-12-20T14:53:06;7.20;99.90
29413;DHT22;16389;50.126;8.450;2023-12-20T14:55:32;7.10;99.90
29413;DHT22;16389;50.126;8.450;2023-12-20T14:57:57;7.10;99.90
29413;DHT22;16389;50.126;8.450;2023-12-20T15:00:23;7.00;99.90
29413;DHT22;16389;50.126;8.450;2023-12-20T15:02:49;7.00;99.90
29413;DHT22;16389;50.126;8.450;2023-12-20T15:05:14;6.90;99.90
29413;DHT22;16389;50.126;8.450;2023-12-20T15:07:40;6.90;99.90
29413;DHT22;16389;50.126;8.450;2023-12-20T15:10:06;6.90;99.90
29413;DHT22;16389;50.126;8.450;2023-12-20T15:12:36;6.80;99.90
29413;DHT22;16389;50.126;8.450;2023-12-20T15:15:04;6.80;99.90
29413;DHT22;16389;50.126;8.450;2023-12-20T15:17:30;6.80;99.90
29413;DHT22;16389;50.126;8.450;2023-12-20T15:19:58;6.70;99.90
29413;DHT22;16389;50.126;8.450;2023-12-20T15:22:27;6.70;99.90
29413;DHT22;16389;50.126;8.450;2023-12-20T15:25:06;6.70;99.90
29413;DHT22;16389;50.126;8.450;2023-12-20T15:27:34;6.70;99.90
29413;DHT22;16389;50.126;8.450;2023-12-20T15:30:03;6.70;99.90
29413;DHT22;16389;50.126;8.450;2023-12-20T15:32:32;6.70;99.90
29413;DHT22;16389;50.126;8.450;2023-12-20T15:35:04;6.70;99.90
29413;DHT22;16389;50.126;8.450;2023-12-20T15:37:34;6.70;99.90
29413;DHT22;16389;50.126;8.450;2023-12-20T15:40:00;6.60;99.90
29413;DHT22;16389;50.126;8.450;2023-12-20T15:42:26;6.60;99.90
29413;DHT22;16389;50.126;8.450;2023-12-20T15:44:51;6.60;99.90
29413;DHT22;16389;50.126;8.450;2023-12-20T15:47:20;6.60;99.90
29413;DHT22;16389;50.126;8.450;2023-12-20T15:49:52;6.60;99.90
29413;DHT22;16389;50.126;8.450;2023-12-20T15:52:21;6.60;99.90
29413;DHT22;16389;50.126;8.450;2023-12-20T15:54:46;6.70;99.90
29413;DHT22;16389;50.126;8.450;2023-12-20T15:57:13;6.70;99.90
29413;DHT22;16389;50.126;8.450;2023-12-20T15:59:41;6.60;99.90
29413;DHT22;16389;50.126;8.450;2023-12-20T16:02:07;6.50;99.90
29413;DHT22;16389;50.126;8.450;2023-12-20T16:04:32;6.50;99.90
29413;DHT22;16389;50.126;8.450;2023-12-20T16:06:58;6.50;99.90